Nocc Caspian — V7YT4 — position and weather

sailwx.info

Track history (hours):
 
Tides and Currents Weather Stations Pressure Air Temp Water Temp Dewpoint Dewpoint Depression Visibility Wind Speed Wind Dir Waves Ship Positions

Nocc Caspian

Last reported at 2017-May-18 13:11 UTC. Time now 2017-May-27 19:27 UTC.
Position N 01°15' E 104°00'.
Warning: this ship's position is 9 days out of date.

Length 184 m; draft 7.7 m.

Type: Cargo ship. MMSI: 538004728.

Date/timePositionNaut miles runAvg speedWind from/ knotsBaromVisibWave heightAir tempDewpointWater temp
2017-May-18 13:11N 01°15' E 104°00'2 8.5
2017-May-18 13:00N 01°15' E 103°59'3 5.0
2017-May-18 12:30N 01°17' E 103°57'0 0.8
2017-May-18 12:00N 01°17' E 103°56'0 0.0
2017-May-18 11:18N 01°17' E 103°56'0 0.0
2017-May-18 10:57N 01°17' E 103°56'0 0.0
2017-May-18 10:30N 01°17' E 103°56'0 0.0
2017-May-18 09:51N 01°17' E 103°56'0 0.0
2017-May-18 09:18N 01°17' E 103°56'0 0.0
2017-May-18 09:00N 01°17' E 103°56'0 0.1
2017-May-18 08:30N 01°17' E 103°56'0 0.1
2017-May-18 07:57N 01°17' E 103°56'0 0.0
2017-May-18 07:27N 01°17' E 103°56'0 0.1
2017-May-18 07:00N 01°17' E 103°56'0 0.1
2017-May-18 06:21N 01°17' E 103°56'0 0.0
2017-May-18 05:45N 01°17' E 103°56'0 0.0
2017-May-18 05:27N 01°17' E 103°56'0 0.0
2017-May-18 04:57N 01°17' E 103°56'0 0.0
2017-May-18 04:30N 01°17' E 103°56'0 0.0
2017-May-18 04:00N 01°17' E 103°56'0 0.1
2017-May-18 03:30N 01°17' E 103°56'0 0.1
2017-May-18 02:57N 01°17' E 103°56'0 0.7
2017-May-18 02:30N 01°17' E 103°57'2 3.8
2017-May-18 02:00N 01°16' E 103°58'2 3.1
2017-May-18 01:30N 01°15' E 103°57'4 7.5
2017-May-18 01:00N 01°13' E 103°54'4 8.3
2017-May-18 00:30N 01°11' E 103°50'4 7.8
2017-May-18 00:00N 01°09' E 103°47'4 8.0
2017-May-17 23:30N 01°07' E 103°44'4 8.3
2017-May-17 23:00N 01°04' E 103°41'4 7.5
2017-May-17 22:30N 01°05' E 103°37'4 9.1
2017-May-17 22:00N 01°07' E 103°33'5 9.9
2017-May-17 21:30N 01°10' E 103°29'610.3
2017-May-17 20:58N 01°13' E 103°24'510.1
2017-May-17 20:30N 01°16' E 103°21'6110.3
2017-May-17 14:32N 01°48' E 102°28'0 9.9
2017-May-17 14:29N 01°48' E 102°28'  
Track history (hours):
 
Tides and Currents Weather Stations Pressure Air Temp Water Temp Dewpoint Dewpoint Depression Visibility Wind Speed Wind Dir Waves Ship Positions

Nocc Caspian

Last reported at 2017-May-18 13:11 UTC. Time now 2017-May-27 19:27 UTC.
Position N 01°15' E 104°00'.
Warning: this ship's position is 9 days out of date.

Length 184 m; draft 7.7 m.

Type: Cargo ship. MMSI: 538004728.

Date/timePositionNaut miles runAvg speedWind from/ knotsBaromVisibWave heightAir tempDewpointWater temp
2017-May-18 13:11N 01°15' E 104°00'2 8.5
2017-May-18 13:00N 01°15' E 103°59'3 5.0
2017-May-18 12:30N 01°17' E 103°57'0 0.8
2017-May-18 12:00N 01°17' E 103°56'0 0.0
2017-May-18 11:18N 01°17' E 103°56'0 0.0
2017-May-18 10:57N 01°17' E 103°56'0 0.0
2017-May-18 10:30N 01°17' E 103°56'0 0.0
2017-May-18 09:51N 01°17' E 103°56'0 0.0
2017-May-18 09:18N 01°17' E 103°56'0 0.0
2017-May-18 09:00N 01°17' E 103°56'0 0.1
2017-May-18 08:30N 01°17' E 103°56'0 0.1
2017-May-18 07:57N 01°17' E 103°56'0 0.0
2017-May-18 07:27N 01°17' E 103°56'0 0.1
2017-May-18 07:00N 01°17' E 103°56'0 0.1
2017-May-18 06:21N 01°17' E 103°56'0 0.0
2017-May-18 05:45N 01°17' E 103°56'0 0.0
2017-May-18 05:27N 01°17' E 103°56'0 0.0
2017-May-18 04:57N 01°17' E 103°56'0 0.0
2017-May-18 04:30N 01°17' E 103°56'0 0.0
2017-May-18 04:00N 01°17' E 103°56'0 0.1
2017-May-18 03:30N 01°17' E 103°56'0 0.1
2017-May-18 02:57N 01°17' E 103°56'0 0.7
2017-May-18 02:30N 01°17' E 103°57'2 3.8
2017-May-18 02:00N 01°16' E 103°58'2 3.1
2017-May-18 01:30N 01°15' E 103°57'4 7.5
2017-May-18 01:00N 01°13' E 103°54'4 8.3
2017-May-18 00:30N 01°11' E 103°50'4 7.8
2017-May-18 00:00N 01°09' E 103°47'4 8.0
2017-May-17 23:30N 01°07' E 103°44'4 8.3
2017-May-17 23:00N 01°04' E 103°41'4 7.5
2017-May-17 22:30N 01°05' E 103°37'4 9.1
2017-May-17 22:00N 01°07' E 103°33'5 9.9
2017-May-17 21:30N 01°10' E 103°29'610.3
2017-May-17 20:58N 01°13' E 103°24'510.1
2017-May-17 20:30N 01°16' E 103°21'6110.3
2017-May-17 14:32N 01°48' E 102°28'0 9.9
2017-May-17 14:29N 01°48' E 102°28'  

Dump ship's entire track history